createdAt,value
2023-03-18T00:00:40.166Z,11.22
2023-03-18T00:01:40.133Z,11.18
2023-03-18T00:02:40.319Z,11.16
2023-03-18T00:03:40.190Z,11.15
2023-03-18T00:04:40.100Z,11.11
2023-03-18T00:05:40.103Z,11.16
2023-03-18T00:06:40.102Z,11.18
2023-03-18T00:07:40.061Z,11.19
2023-03-18T00:08:40.057Z,11.12
2023-03-18T00:09:40.044Z,11.12
2023-03-18T00:10:40.055Z,11.18
2023-03-18T00:11:40.023Z,11.18
2023-03-18T00:12:40.012Z,11.11
2023-03-18T00:13:39.994Z,11.13
2023-03-18T00:14:40.004Z,11.18
2023-03-18T00:15:39.991Z,11.20
2023-03-18T00:16:39.987Z,11.22
2023-03-18T00:17:39.959Z,11.18
2023-03-18T00:18:39.944Z,11.23
2023-03-18T00:19:39.956Z,11.13
2023-03-18T00:20:39.920Z,11.11
2023-03-18T00:21:39.909Z,11.11
2023-03-18T00:22:39.923Z,11.16
2023-03-18T00:23:39.902Z,11.09
2023-03-18T00:24:39.904Z,11.22
2023-03-18T00:25:39.886Z,11.13
2023-03-18T00:26:39.861Z,11.01
2023-03-18T00:27:39.872Z,11.05
2023-03-18T00:28:39.845Z,11.08
2023-03-18T00:29:39.828Z,11.11
2023-03-18T00:30:39.842Z,11.11
2023-03-18T00:31:39.909Z,11.12
2023-03-18T00:32:39.817Z,11.11
2023-03-18T00:33:39.788Z,11.05
2023-03-18T00:34:39.772Z,11.08
2023-03-18T00:35:39.788Z,11.09
2023-03-18T00:36:39.801Z,11.03
2023-03-18T00:37:39.733Z,11.11
2023-03-18T00:38:39.753Z,11.05
2023-03-18T00:39:39.716Z,11.12
2023-03-18T00:40:39.744Z,11.13
2023-03-18T00:41:39.713Z,11.01
2023-03-18T00:42:39.680Z,11.11
2023-03-18T00:43:39.672Z,11.16
2023-03-18T00:44:39.690Z,11.09
2023-03-18T00:45:39.652Z,11.08
2023-03-18T00:46:39.680Z,11.04
2023-03-18T00:47:39.630Z,11.01
2023-03-18T00:48:39.623Z,11.09
2023-03-18T00:49:39.626Z,11.09
2023-03-18T00:50:39.596Z,11.01
2023-03-18T00:51:39.587Z,11.09
2023-03-18T00:52:39.596Z,11.09
2023-03-18T00:53:39.562Z,11.09
2023-03-18T00:54:39.603Z,11.08
2023-03-18T00:55:39.551Z,11.03
2023-03-18T00:56:39.534Z,11.08
2023-03-18T00:57:39.515Z,11.08
2023-03-18T00:58:39.513Z,11.09
2023-03-18T00:59:39.532Z,11.01
2023-03-18T01:00:39.504Z,11.05
2023-03-18T01:01:39.535Z,11.00
2023-03-18T01:02:39.470Z,11.09
2023-03-18T01:03:39.472Z,11.12
2023-03-18T01:04:39.443Z,11.00
2023-03-18T01:05:39.428Z,11.12
2023-03-18T01:06:39.424Z,11.00
2023-03-18T01:07:39.414Z,11.00
2023-03-18T01:08:39.428Z,11.00
2023-03-18T01:09:39.418Z,11.03
2023-03-18T01:10:39.403Z,10.97
2023-03-18T01:11:39.365Z,11.08
2023-03-18T01:12:39.689Z,11.04
2023-03-18T01:13:39.344Z,11.01
2023-03-18T01:14:39.360Z,11.01
2023-03-18T01:15:39.321Z,10.93
2023-03-18T01:16:39.350Z,11.05
2023-03-18T01:17:39.300Z,11.03
2023-03-18T01:18:39.290Z,11.03
2023-03-18T01:19:39.299Z,11.04
2023-03-18T01:20:39.269Z,11.00
2023-03-18T01:21:39.257Z,11.00
2023-03-18T01:22:39.252Z,10.98
2023-03-18T01:23:39.255Z,10.98
2023-03-18T01:24:39.249Z,11.01
2023-03-18T01:25:39.214Z,10.93
2023-03-18T01:26:39.222Z,10.98
2023-03-18T01:27:39.187Z,11.03
2023-03-18T01:28:39.188Z,10.93
2023-03-18T01:29:39.204Z,10.93
2023-03-18T01:30:39.174Z,10.95
2023-03-18T01:31:39.186Z,10.95
2023-03-18T01:32:39.188Z,10.93
2023-03-18T01:33:39.122Z,10.94
2023-03-18T01:34:39.122Z,10.95
2023-03-18T01:35:39.148Z,10.94
2023-03-18T01:36:39.114Z,10.82
2023-03-18T01:37:39.075Z,10.95
2023-03-18T01:38:39.094Z,10.91
2023-03-18T01:39:39.056Z,10.86
2023-03-18T01:40:39.072Z,10.90
2023-03-18T01:41:39.035Z,10.93
2023-03-18T01:42:39.063Z,10.94
2023-03-18T01:43:39.044Z,10.83
2023-03-18T01:44:39.015Z,10.86
2023-03-18T01:45:39.022Z,10.87
2023-03-18T01:46:38.988Z,10.85
2023-03-18T01:47:38.964Z,10.90
2023-03-18T01:48:38.974Z,10.91
2023-03-18T01:49:38.939Z,10.83
2023-03-18T01:50:38.948Z,10.91
2023-03-18T01:51:38.927Z,10.85
2023-03-18T01:52:38.922Z,10.83
2023-03-18T01:53:38.924Z,10.85
2023-03-18T01:54:38.903Z,10.85
2023-03-18T01:55:38.880Z,10.82
2023-03-18T01:56:38.871Z,10.80
2023-03-18T01:57:38.860Z,10.82
2023-03-18T01:58:38.889Z,10.80
2023-03-18T01:59:38.830Z,10.79
2023-03-18T02:00:38.826Z,10.79
2023-03-18T02:01:38.811Z,10.72
2023-03-18T02:02:38.804Z,10.72
2023-03-18T02:03:38.844Z,10.70
2023-03-18T02:04:38.780Z,10.78
2023-03-18T02:05:38.767Z,10.72
2023-03-18T02:06:38.771Z,10.73
2023-03-18T02:07:38.745Z,10.73
2023-03-18T02:08:38.749Z,10.76
2023-03-18T02:09:38.761Z,10.70
2023-03-18T02:10:38.735Z,10.76
2023-03-18T02:11:38.723Z,10.73
2023-03-18T02:12:38.704Z,10.68
2023-03-18T02:13:38.682Z,10.70
2023-03-18T02:14:38.722Z,10.72
2023-03-18T02:15:38.666Z,10.64
2023-03-18T02:16:38.761Z,10.64
2023-03-18T02:17:38.649Z,10.72
2023-03-18T02:18:38.632Z,10.70
2023-03-18T02:19:38.644Z,10.68
2023-03-18T02:20:38.625Z,10.64
2023-03-18T02:21:38.640Z,10.60
2023-03-18T02:22:38.589Z,10.64
2023-03-18T02:23:38.571Z,10.67
2023-03-18T02:24:38.594Z,10.64
2023-03-18T02:25:38.549Z,10.61
2023-03-18T02:26:38.548Z,10.60
2023-03-18T02:27:38.528Z,10.64
2023-03-18T02:28:38.541Z,10.62
2023-03-18T02:29:38.514Z,10.57
2023-03-18T02:30:38.590Z,10.68
2023-03-18T02:31:38.483Z,10.64
2023-03-18T02:32:38.514Z,10.65
2023-03-18T02:33:38.493Z,10.55
2023-03-18T02:34:38.457Z,10.49
2023-03-18T02:35:38.473Z,10.64
2023-03-18T02:36:38.430Z,10.60
2023-03-18T02:37:38.451Z,10.52
2023-03-18T02:38:38.411Z,10.60
2023-03-18T02:39:38.416Z,10.60
2023-03-18T02:40:38.423Z,10.61
2023-03-18T02:41:38.393Z,10.52
2023-03-18T02:42:38.367Z,10.55
2023-03-18T02:43:38.357Z,10.58
2023-03-18T02:44:38.346Z,10.55
2023-03-18T02:45:38.357Z,10.52
2023-03-18T02:46:38.357Z,10.54
2023-03-18T02:47:38.311Z,10.52
2023-03-18T02:48:38.305Z,10.46
2023-03-18T02:49:38.302Z,10.55
2023-03-18T02:50:38.589Z,10.48
2023-03-18T02:51:38.268Z,10.48
2023-03-18T02:52:38.278Z,10.49
2023-03-18T02:53:38.260Z,10.48
2023-03-18T02:54:38.258Z,10.52
2023-03-18T02:55:38.234Z,10.52
2023-03-18T02:56:38.219Z,10.41
2023-03-18T02:57:38.222Z,10.39
2023-03-18T02:58:38.199Z,10.48
2023-03-18T02:59:38.210Z,10.48
2023-03-18T03:00:38.175Z,10.46
2023-03-18T03:01:38.249Z,10.43
2023-03-18T03:02:38.290Z,10.48
2023-03-18T03:03:38.221Z,10.46
2023-03-18T03:04:38.162Z,10.43
2023-03-18T03:05:38.150Z,10.43
2023-03-18T03:06:38.110Z,10.45
2023-03-18T03:07:38.196Z,10.43
2023-03-18T03:08:38.099Z,10.36
2023-03-18T03:09:38.099Z,10.48
2023-03-18T03:10:38.069Z,10.46
2023-03-18T03:11:38.066Z,10.46
2023-03-18T03:12:38.045Z,10.43
2023-03-18T03:13:38.058Z,10.41
2023-03-18T03:14:38.031Z,10.42
2023-03-18T03:15:38.056Z,10.45
2023-03-18T03:16:38.008Z,10.41
2023-03-18T03:17:38.097Z,10.46
2023-03-18T03:18:38.049Z,10.45
2023-03-18T03:19:37.967Z,10.41
2023-03-18T03:20:37.973Z,10.42
2023-03-18T03:21:37.949Z,10.41
2023-03-18T03:22:37.949Z,10.46
2023-03-18T03:23:37.933Z,10.41
2023-03-18T03:24:37.957Z,10.41
2023-03-18T03:25:37.904Z,10.42
2023-03-18T03:26:37.938Z,10.36
2023-03-18T03:27:37.993Z,10.30
2023-03-18T03:28:37.874Z,10.43
2023-03-18T03:29:37.859Z,10.38
2023-03-18T03:30:37.855Z,10.35
2023-03-18T03:31:37.838Z,10.34
2023-03-18T03:32:37.883Z,10.39
2023-03-18T03:33:37.820Z,10.31
2023-03-18T03:34:37.860Z,10.38
2023-03-18T03:35:37.864Z,10.38
2023-03-18T03:36:37.782Z,10.38
2023-03-18T03:37:37.798Z,10.35
2023-03-18T03:38:37.764Z,10.31
2023-03-18T03:39:37.750Z,10.34
2023-03-18T03:40:37.741Z,10.36
2023-03-18T03:41:37.729Z,10.28
2023-03-18T03:42:37.747Z,10.31
2023-03-18T03:43:37.710Z,10.30
2023-03-18T03:44:37.698Z,10.28
2023-03-18T03:45:37.686Z,10.31
2023-03-18T03:46:37.788Z,10.26
2023-03-18T03:47:37.691Z,10.27
2023-03-18T03:48:37.656Z,10.36
2023-03-18T03:49:37.644Z,10.26
2023-03-18T03:50:37.676Z,10.21
2023-03-18T03:51:37.681Z,10.27
2023-03-18T03:52:37.670Z,10.27
2023-03-18T03:53:37.611Z,10.31
2023-03-18T03:54:37.680Z,10.23
2023-03-18T03:55:37.713Z,10.28
2023-03-18T03:56:37.569Z,10.24
2023-03-18T03:57:37.556Z,10.27
2023-03-18T03:58:37.545Z,10.23
2023-03-18T03:59:37.538Z,10.21
2023-03-18T04:00:37.543Z,10.23
2023-03-18T04:01:37.519Z,10.27
2023-03-18T04:02:37.580Z,10.28
2023-03-18T04:03:37.522Z,10.21
2023-03-18T04:04:37.491Z,10.23
2023-03-18T04:05:37.506Z,10.16
2023-03-18T04:06:37.488Z,10.20
2023-03-18T04:07:37.454Z,10.30
2023-03-18T04:08:37.440Z,10.17
2023-03-18T04:09:37.423Z,10.21
2023-03-18T04:10:37.445Z,10.18
2023-03-18T04:11:37.397Z,10.26
2023-03-18T04:12:37.398Z,10.27
2023-03-18T04:13:37.383Z,10.26
2023-03-18T04:14:37.369Z,10.24
2023-03-18T04:15:37.385Z,10.12
2023-03-18T04:16:37.348Z,10.12
2023-03-18T04:17:37.358Z,10.16
2023-03-18T04:18:37.329Z,10.17
2023-03-18T04:19:37.345Z,10.17
2023-03-18T04:20:37.305Z,10.16
2023-03-18T04:21:37.309Z,10.14
2023-03-18T04:22:37.309Z,10.12
2023-03-18T04:23:37.274Z,10.10
2023-03-18T04:24:37.335Z,10.10
2023-03-18T04:25:37.257Z,10.12
2023-03-18T04:26:37.251Z,10.08
2023-03-18T04:27:37.231Z,10.08
2023-03-18T04:28:37.222Z,10.05
2023-03-18T04:29:37.233Z,10.10
2023-03-18T04:30:37.200Z,10.09
2023-03-18T04:31:37.301Z,10.10
2023-03-18T04:32:37.251Z,10.02
2023-03-18T04:33:37.168Z,10.12
2023-03-18T04:34:37.173Z,10.03
2023-03-18T04:35:37.185Z,10.09
2023-03-18T04:36:37.131Z,10.08
2023-03-18T04:37:37.499Z,10.14
2023-03-18T04:38:37.158Z,10.05
2023-03-18T04:39:37.102Z,10.03
2023-03-18T04:40:37.085Z,10.12
2023-03-18T04:41:37.080Z,10.02
2023-03-18T04:42:37.064Z,10.12
2023-03-18T04:43:37.085Z,10.12
2023-03-18T04:44:37.044Z,9.96
2023-03-18T04:45:37.032Z,10.02
2023-03-18T04:46:37.045Z,10.10
2023-03-18T04:47:37.014Z,10.09
2023-03-18T04:48:37.029Z,10.01
2023-03-18T04:49:36.992Z,10.06
2023-03-18T04:50:37.014Z,9.99
2023-03-18T04:51:36.973Z,10.08
2023-03-18T04:52:36.956Z,9.99
2023-03-18T04:53:36.946Z,10.02
2023-03-18T04:54:36.973Z,10.01
2023-03-18T04:55:36.965Z,9.99
2023-03-18T04:56:36.920Z,10.03
2023-03-18T04:57:36.904Z,10.08
2023-03-18T04:58:36.892Z,10.03
2023-03-18T04:59:36.906Z,10.03
2023-03-18T05:00:36.951Z,10.02
2023-03-18T05:01:36.860Z,10.03
2023-03-18T05:02:36.849Z,10.03
2023-03-18T05:03:36.936Z,10.01
2023-03-18T05:04:36.832Z,10.02
2023-03-18T05:05:38.828Z,10.05
2023-03-18T05:06:36.844Z,10.01
2023-03-18T05:07:36.798Z,9.96
2023-03-18T05:08:36.785Z,9.98
2023-03-18T05:09:36.775Z,9.99
2023-03-18T05:10:36.786Z,9.99
2023-03-18T05:11:36.780Z,10.01
2023-03-18T05:12:36.745Z,9.96
2023-03-18T05:13:36.733Z,9.88
2023-03-18T05:14:36.720Z,9.84
2023-03-18T05:15:36.736Z,9.85
2023-03-18T05:16:36.784Z,9.90
2023-03-18T05:17:36.695Z,9.84
2023-03-18T05:18:36.682Z,9.94
2023-03-18T05:19:36.671Z,9.81
2023-03-18T05:20:36.678Z,9.93
2023-03-18T05:21:36.674Z,9.90
2023-03-18T05:22:36.634Z,9.85
2023-03-18T05:23:36.628Z,9.90
2023-03-18T05:24:36.613Z,9.85
2023-03-18T05:25:36.603Z,9.84
2023-03-18T05:26:36.747Z,9.84
2023-03-18T05:27:36.584Z,9.90
2023-03-18T05:28:36.567Z,9.88
2023-03-18T05:29:36.569Z,9.93
2023-03-18T05:30:36.544Z,9.90
2023-03-18T05:31:36.591Z,9.84
2023-03-18T05:32:36.578Z,9.81
2023-03-18T05:33:36.540Z,9.85
2023-03-18T05:34:36.527Z,9.81
2023-03-18T05:35:36.525Z,9.87
2023-03-18T05:36:36.542Z,9.81
2023-03-18T05:37:36.472Z,9.81
2023-03-18T05:38:36.460Z,9.81
2023-03-18T05:39:36.457Z,9.77
2023-03-18T05:40:36.464Z,9.77
2023-03-18T05:41:36.468Z,9.77
2023-03-18T05:42:45.927Z,9.80
2023-03-18T05:43:37.405Z,9.77
2023-03-18T05:44:36.395Z,9.78
2023-03-18T05:45:39.519Z,9.75
2023-03-18T05:46:36.402Z,9.69
2023-03-18T05:47:36.362Z,9.73
2023-03-18T05:48:36.355Z,9.69
2023-03-18T05:49:36.348Z,9.73
2023-03-18T05:50:36.333Z,9.70
2023-03-18T05:51:36.348Z,9.69
2023-03-18T05:52:36.316Z,9.75
2023-03-18T05:53:36.322Z,9.81
2023-03-18T05:54:36.345Z,9.67
2023-03-18T05:55:36.282Z,9.66
2023-03-18T05:56:36.289Z,9.69
2023-03-18T05:57:36.262Z,9.59
2023-03-18T05:58:36.266Z,9.62
2023-03-18T05:59:36.236Z,9.66
2023-03-18T06:00:36.224Z,9.57
2023-03-18T06:01:36.232Z,9.65
2023-03-18T06:02:36.297Z,9.60
2023-03-18T06:03:36.202Z,9.70
2023-03-18T06:04:36.181Z,9.57
2023-03-18T06:05:36.177Z,9.60
2023-03-18T06:06:36.181Z,9.62
2023-03-18T06:07:36.165Z,9.63
2023-03-18T06:08:36.162Z,9.66
2023-03-18T06:09:36.130Z,9.59
2023-03-18T06:10:36.119Z,9.63
2023-03-18T06:11:36.105Z,9.62
2023-03-18T06:12:36.094Z,9.54
2023-03-18T06:13:36.110Z,9.62
2023-03-18T06:14:36.127Z,9.62
2023-03-18T06:15:36.076Z,9.62
2023-03-18T06:16:36.156Z,9.62
2023-03-18T06:17:36.049Z,9.62
2023-03-18T06:18:36.053Z,9.57
2023-03-18T06:19:36.041Z,9.60
2023-03-18T06:20:36.037Z,9.57
2023-03-18T06:21:36.006Z,9.48
2023-03-18T06:22:35.987Z,9.55
2023-03-18T06:23:35.982Z,9.54
2023-03-18T06:24:36.003Z,9.55
2023-03-18T06:25:35.960Z,9.54
2023-03-18T06:26:35.954Z,9.52
2023-03-18T06:27:35.942Z,9.51
2023-03-18T06:28:36.008Z,9.55
2023-03-18T06:29:35.925Z,9.62
2023-03-18T06:30:35.927Z,9.55
2023-03-18T06:31:35.894Z,9.55
2023-03-18T06:32:35.948Z,9.51
2023-03-18T06:33:35.901Z,9.44
2023-03-18T06:34:35.857Z,9.51
2023-03-18T06:35:35.981Z,9.51
2023-03-18T06:36:35.853Z,9.52
2023-03-18T06:37:35.859Z,9.45
2023-03-18T06:38:35.815Z,9.52
2023-03-18T06:39:35.812Z,9.55
2023-03-18T06:40:35.798Z,9.55
2023-03-18T06:41:35.796Z,9.51
2023-03-18T06:42:35.806Z,9.55
2023-03-18T06:43:35.774Z,9.41
2023-03-18T06:44:35.762Z,9.50
2023-03-18T06:45:35.744Z,9.50
2023-03-18T06:46:35.846Z,9.60
2023-03-18T06:47:35.742Z,9.55
2023-03-18T06:48:35.709Z,9.48
2023-03-18T06:49:35.734Z,9.52
2023-03-18T06:50:35.687Z,9.52
2023-03-18T06:51:35.679Z,9.45
2023-03-18T06:52:35.665Z,9.52
2023-03-18T06:53:35.660Z,9.51
2023-03-18T06:54:35.671Z,9.44
2023-03-18T06:55:35.636Z,9.50
2023-03-18T06:56:35.625Z,9.51
2023-03-18T06:57:35.632Z,9.50
2023-03-18T06:58:35.598Z,9.51
2023-03-18T06:59:35.629Z,9.45
2023-03-18T07:00:35.628Z,9.55
2023-03-18T07:01:35.632Z,9.51
2023-03-18T07:02:38.885Z,9.54
2023-03-18T07:03:35.551Z,9.52
2023-03-18T07:04:35.716Z,9.51
2023-03-18T07:05:35.529Z,9.51
2023-03-18T07:06:35.511Z,9.62
2023-03-18T07:07:35.505Z,9.52
2023-03-18T07:08:35.492Z,9.57
2023-03-18T07:09:35.482Z,9.55
2023-03-18T07:10:35.503Z,9.55
2023-03-18T07:11:35.459Z,9.62
2023-03-18T07:12:35.442Z,9.57
2023-03-18T07:13:35.462Z,9.51
2023-03-18T07:14:35.461Z,9.59
2023-03-18T07:15:35.842Z,9.59
2023-03-18T07:16:35.407Z,9.59
2023-03-18T07:17:35.402Z,9.59
2023-03-18T07:18:35.399Z,9.59
2023-03-18T07:19:35.396Z,9.62
2023-03-18T07:20:35.359Z,9.62
2023-03-18T07:21:35.378Z,9.65
2023-03-18T07:22:35.340Z,9.65
2023-03-18T07:23:35.332Z,9.63
2023-03-18T07:24:35.331Z,9.63
2023-03-18T07:25:35.332Z,9.59
2023-03-18T07:26:35.313Z,9.65
2023-03-18T07:27:35.286Z,9.62
2023-03-18T07:28:35.276Z,9.73
2023-03-18T07:29:35.272Z,9.73
2023-03-18T07:30:35.297Z,9.78
2023-03-18T07:31:35.403Z,9.78
2023-03-18T07:32:35.255Z,9.72
2023-03-18T07:33:35.289Z,9.83
2023-03-18T07:34:35.256Z,9.77
2023-03-18T07:35:35.851Z,9.80
2023-03-18T07:36:35.184Z,9.75
2023-03-18T07:37:35.179Z,9.80
2023-03-18T07:38:35.201Z,9.78
2023-03-18T07:39:35.153Z,9.81
2023-03-18T07:40:35.141Z,9.75
2023-03-18T07:41:37.706Z,9.84
2023-03-18T07:42:35.116Z,9.87
2023-03-18T07:43:35.144Z,9.90
2023-03-18T07:44:35.108Z,9.88
2023-03-18T07:45:35.098Z,9.98
2023-03-18T07:46:35.129Z,9.93
2023-03-18T07:47:35.139Z,9.99
2023-03-18T07:48:35.075Z,10.05
2023-03-18T07:49:35.045Z,10.05
2023-03-18T07:50:35.088Z,10.08
2023-03-18T07:51:35.027Z,10.09
2023-03-18T07:52:35.015Z,10.08
2023-03-18T07:53:35.032Z,10.06
2023-03-18T07:54:35.001Z,10.12
2023-03-18T07:55:35.078Z,10.21
2023-03-18T07:56:34.965Z,10.21
2023-03-18T07:57:34.960Z,10.28
2023-03-18T07:58:34.975Z,10.23
2023-03-18T07:59:34.942Z,10.31
2023-03-18T08:00:34.940Z,10.30
2023-03-18T08:01:34.917Z,10.34
2023-03-18T08:02:34.934Z,10.35
2023-03-18T08:03:34.991Z,10.35
2023-03-18T08:04:34.976Z,10.45
2023-03-18T08:05:35.119Z,10.42
2023-03-18T08:06:34.881Z,10.46
2023-03-18T08:07:34.861Z,10.52
2023-03-18T08:08:34.976Z,10.54
2023-03-18T08:09:34.847Z,10.55
2023-03-18T08:10:34.820Z,10.61
2023-03-18T08:11:34.809Z,10.67
2023-03-18T08:12:49.377Z,10.61
2023-03-18T08:13:35.813Z,10.73
2023-03-18T08:14:34.774Z,10.70
2023-03-18T08:15:35.324Z,10.79
2023-03-18T08:16:34.790Z,10.87
2023-03-18T08:17:34.739Z,10.80
2023-03-18T08:18:34.752Z,10.95
2023-03-18T08:19:34.724Z,10.94
2023-03-18T08:20:34.704Z,11.01
2023-03-18T08:21:34.701Z,11.01
2023-03-18T08:22:34.704Z,11.05
2023-03-18T08:23:34.697Z,11.05
2023-03-18T08:24:34.656Z,11.05
2023-03-18T08:25:35.149Z,11.15
2023-03-18T08:26:34.651Z,11.18
2023-03-18T08:27:34.640Z,11.18
2023-03-18T08:28:34.622Z,11.30
2023-03-18T08:29:34.650Z,11.27
2023-03-18T08:30:34.623Z,11.34
2023-03-18T08:31:34.644Z,11.41
2023-03-18T08:32:34.619Z,11.48
2023-03-18T08:33:34.568Z,11.49
2023-03-18T08:34:34.573Z,11.49
2023-03-18T08:35:34.584Z,11.49
2023-03-18T08:36:34.535Z,11.52
2023-03-18T08:37:34.524Z,11.62
2023-03-18T08:38:34.534Z,11.64
2023-03-18T08:39:34.502Z,11.66
2023-03-18T08:40:34.534Z,11.62
2023-03-18T08:41:34.480Z,11.61
2023-03-18T08:42:34.475Z,11.74
2023-03-18T08:43:34.460Z,11.74
2023-03-18T08:44:34.457Z,11.70
2023-03-18T08:45:34.935Z,11.82
2023-03-18T08:46:34.456Z,11.79
2023-03-18T08:47:34.444Z,11.82
2023-03-18T08:48:34.410Z,11.96
2023-03-18T08:49:34.397Z,11.97
2023-03-18T08:50:34.441Z,11.88
2023-03-18T08:51:34.383Z,11.87
2023-03-18T08:52:34.366Z,11.91
2023-03-18T08:53:34.356Z,11.88
2023-03-18T08:54:34.371Z,11.97
2023-03-18T08:55:34.977Z,12.03
2023-03-18T08:56:34.335Z,11.97
2023-03-18T08:57:34.313Z,11.97
2023-03-18T08:58:34.302Z,12.05
2023-03-18T08:59:34.283Z,12.13
2023-03-18T09:00:34.294Z,12.10
2023-03-18T09:01:34.316Z,12.17
2023-03-18T09:02:34.256Z,12.23
2023-03-18T09:03:34.259Z,12.28
2023-03-18T09:04:34.247Z,12.26
2023-03-18T09:05:34.688Z,12.33
2023-03-18T09:06:34.213Z,12.38
2023-03-18T09:07:34.204Z,12.35
2023-03-18T09:08:34.225Z,12.35
2023-03-18T09:09:43.435Z,12.46
2023-03-18T09:10:35.231Z,12.38
2023-03-18T09:11:34.159Z,12.43
2023-03-18T09:12:34.154Z,12.43
2023-03-18T09:13:34.149Z,12.43
2023-03-18T09:14:34.136Z,12.51
2023-03-18T09:15:34.771Z,12.53
2023-03-18T09:16:34.155Z,12.58
2023-03-18T09:17:51.028Z,12.59
2023-03-18T09:18:35.085Z,12.69
2023-03-18T09:19:34.074Z,12.61
2023-03-18T09:20:34.082Z,12.59
2023-03-18T09:21:34.049Z,12.76
2023-03-18T09:22:34.036Z,12.71
2023-03-18T09:23:34.035Z,12.73
2023-03-18T09:24:34.043Z,12.76
2023-03-18T09:25:34.585Z,12.80
2023-03-18T09:26:34.023Z,12.76
2023-03-18T09:27:33.984Z,12.87
2023-03-18T09:28:33.996Z,12.95
2023-03-18T09:29:33.962Z,12.95
2023-03-18T09:30:34.090Z,12.98
2023-03-18T09:31:33.956Z,12.96
2023-03-18T09:32:33.985Z,12.99
2023-03-18T09:33:33.913Z,13.02
2023-03-18T09:34:33.904Z,13.04
2023-03-18T09:35:34.358Z,13.06
2023-03-18T09:36:33.908Z,13.17
2023-03-18T09:37:33.865Z,13.21
2023-03-18T09:38:33.857Z,13.20
2023-03-18T09:39:33.846Z,13.17
2023-03-18T09:40:34.818Z,13.29
2023-03-18T09:41:33.859Z,13.29
2023-03-18T09:42:33.837Z,13.40
2023-03-18T09:43:33.802Z,13.35
2023-03-18T09:44:33.797Z,13.40
2023-03-18T09:45:34.276Z,13.39
2023-03-18T09:46:33.886Z,13.51
2023-03-18T09:47:33.763Z,13.55
2023-03-18T09:48:33.754Z,13.54
2023-03-18T09:49:33.737Z,13.54
2023-03-18T09:50:33.778Z,13.60
2023-03-18T09:51:33.719Z,13.58
2023-03-18T09:52:33.709Z,13.65
2023-03-18T09:53:33.702Z,13.71
2023-03-18T09:54:33.684Z,13.72
2023-03-18T09:55:34.176Z,13.65
2023-03-18T09:56:33.701Z,13.71
2023-03-18T09:57:33.654Z,13.67
2023-03-18T09:58:33.669Z,13.73
2023-03-18T09:59:33.638Z,13.79
2023-03-18T10:00:33.668Z,13.90
2023-03-18T10:01:33.649Z,13.82
2023-03-18T10:02:33.605Z,13.82
2023-03-18T10:03:33.627Z,13.86
2023-03-18T10:04:33.580Z,13.90
2023-03-18T10:05:34.127Z,13.88
2023-03-18T10:06:33.584Z,13.93
2023-03-18T10:07:33.550Z,13.94
2023-03-18T10:08:35.211Z,14.00
2023-03-18T10:09:33.526Z,13.94
2023-03-18T10:10:33.637Z,14.01
2023-03-18T10:11:33.526Z,14.01
2023-03-18T10:12:33.489Z,14.04
2023-03-18T10:13:33.482Z,14.13
2023-03-18T10:14:35.838Z,14.13
2023-03-18T10:15:33.716Z,14.19
2023-03-18T10:16:33.463Z,14.28
2023-03-18T10:17:33.436Z,14.28
2023-03-18T10:18:33.435Z,14.37
2023-03-18T10:19:33.415Z,14.28
2023-03-18T10:20:33.427Z,14.36
2023-03-18T10:21:33.396Z,14.41
2023-03-18T10:22:33.407Z,14.37
2023-03-18T10:23:33.372Z,14.46
2023-03-18T10:24:33.362Z,14.58
2023-03-18T10:25:33.671Z,14.63
2023-03-18T10:26:33.438Z,14.59
2023-03-18T10:27:33.348Z,14.63
2023-03-18T10:28:33.327Z,14.61
2023-03-18T10:29:33.371Z,14.74
2023-03-18T10:30:33.344Z,14.83
2023-03-18T10:31:33.367Z,14.78
2023-03-18T10:32:48.784Z,14.78
2023-03-18T10:33:34.299Z,14.92
2023-03-18T10:34:33.264Z,14.90
2023-03-18T10:35:33.697Z,15.01
2023-03-18T10:36:33.254Z,15.07
2023-03-18T10:37:33.223Z,15.08
2023-03-18T10:38:33.220Z,15.17
2023-03-18T10:39:33.198Z,15.15
2023-03-18T10:40:33.230Z,15.20
2023-03-18T10:41:33.182Z,15.22
2023-03-18T10:42:33.176Z,15.23
2023-03-18T10:43:33.155Z,15.33
2023-03-18T10:44:33.147Z,15.30
2023-03-18T10:45:33.536Z,15.44
2023-03-18T10:46:33.265Z,15.45
2023-03-18T10:47:33.207Z,15.51
2023-03-18T10:48:33.121Z,15.54
2023-03-18T10:49:33.097Z,15.65
2023-03-18T10:50:33.587Z,15.80
2023-03-18T10:51:33.068Z,15.84
2023-03-18T10:52:33.063Z,15.91
2023-03-18T10:53:33.050Z,16.08
2023-03-18T10:54:33.047Z,16.16
2023-03-18T10:55:33.047Z,16.18
2023-03-18T10:56:33.017Z,16.18
2023-03-18T10:57:33.000Z,16.33
2023-03-18T10:58:32.995Z,16.39
2023-03-18T10:59:32.989Z,16.46
2023-03-18T11:00:33.429Z,16.61
2023-03-18T11:01:33.019Z,16.65
2023-03-18T11:02:33.110Z,16.65
2023-03-18T11:03:32.942Z,16.70
2023-03-18T11:04:32.945Z,16.80
2023-03-18T11:05:33.240Z,16.92
2023-03-18T11:06:32.926Z,17.10
2023-03-18T11:07:32.900Z,17.09
2023-03-18T11:08:32.891Z,17.30
2023-03-18T11:09:32.882Z,17.37
2023-03-18T11:10:33.350Z,17.45
2023-03-18T11:11:32.879Z,17.50
2023-03-18T11:12:32.848Z,17.46
2023-03-18T11:13:32.847Z,17.57
2023-03-18T11:14:32.827Z,17.57
2023-03-18T11:15:32.806Z,17.66
2023-03-18T11:16:33.006Z,17.65
2023-03-18T11:17:32.792Z,17.63
2023-03-18T11:18:32.835Z,17.62
2023-03-18T11:19:32.790Z,17.62
2023-03-18T11:20:33.057Z,17.56
2023-03-18T11:21:32.744Z,17.68
2023-03-18T11:22:32.734Z,17.79
2023-03-18T11:23:32.724Z,17.72
2023-03-18T11:24:32.735Z,17.69
2023-03-18T11:25:32.702Z,17.79
2023-03-18T11:26:32.702Z,17.71
2023-03-18T11:27:32.678Z,17.78
2023-03-18T11:28:32.669Z,17.78
2023-03-18T11:29:32.682Z,17.78
2023-03-18T11:30:35.005Z,17.75
2023-03-18T11:31:32.733Z,17.75
2023-03-18T11:32:32.735Z,17.81
2023-03-18T11:33:32.612Z,17.78
2023-03-18T11:34:32.651Z,17.78
2023-03-18T11:35:32.641Z,17.79
2023-03-18T11:36:32.590Z,17.90
2023-03-18T11:37:32.604Z,17.90
2023-03-18T11:38:32.566Z,17.90
2023-03-18T11:39:32.550Z,17.84
2023-03-18T11:40:32.831Z,17.96
2023-03-18T11:41:32.524Z,18.01
2023-03-18T11:42:32.525Z,18.03
2023-03-18T11:43:32.509Z,18.20
2023-03-18T11:44:32.532Z,18.30
2023-03-18T11:45:32.500Z,18.43
2023-03-18T11:46:32.510Z,18.46
2023-03-18T11:47:32.454Z,18.54
2023-03-18T11:48:32.458Z,18.56
2023-03-18T11:49:32.466Z,18.57
2023-03-18T11:50:32.650Z,18.56
2023-03-18T11:51:32.413Z,18.49
2023-03-18T11:52:32.403Z,18.63
2023-03-18T11:53:32.392Z,18.64
2023-03-18T11:54:32.382Z,18.63
2023-03-18T11:55:32.724Z,18.76
2023-03-18T11:56:32.363Z,18.81
2023-03-18T11:57:32.386Z,18.82
2023-03-18T11:58:32.343Z,18.83
2023-03-18T11:59:32.335Z,18.91
2023-03-18T12:00:32.360Z,18.89
2023-03-18T12:01:32.972Z,18.96
2023-03-18T12:02:32.308Z,19.05
2023-03-18T12:03:32.308Z,19.09
2023-03-18T12:04:32.307Z,19.05
2023-03-18T12:05:32.662Z,19.24
2023-03-18T12:06:32.278Z,19.24
2023-03-18T12:07:32.247Z,19.31
2023-03-18T12:08:32.241Z,19.32
2023-03-18T12:09:32.229Z,19.39
2023-03-18T12:10:32.471Z,19.44
2023-03-18T12:11:32.202Z,19.52
2023-03-18T12:12:32.197Z,19.57
2023-03-18T12:13:32.178Z,19.57
2023-03-18T12:14:32.180Z,19.64
2023-03-18T12:15:32.492Z,19.72
2023-03-18T12:16:32.166Z,19.79
2023-03-18T12:17:32.134Z,19.89
2023-03-18T12:18:32.127Z,19.93
2023-03-18T12:19:32.153Z,20.05
2023-03-18T12:20:32.422Z,20.17
2023-03-18T12:21:32.090Z,20.23
2023-03-18T12:22:32.116Z,20.22
2023-03-18T12:23:32.075Z,20.36
2023-03-18T12:24:32.062Z,20.30
2023-03-18T12:25:32.083Z,20.37
2023-03-18T12:26:32.034Z,20.39
2023-03-18T12:27:32.035Z,20.41
2023-03-18T12:28:32.018Z,20.41
2023-03-18T12:29:32.003Z,20.49
2023-03-18T12:30:32.286Z,20.44
2023-03-18T12:31:32.024Z,20.55
2023-03-18T12:32:32.055Z,20.55
2023-03-18T12:33:31.959Z,20.63
2023-03-18T12:34:31.955Z,20.70
2023-03-18T12:35:32.303Z,20.74
2023-03-18T12:36:31.936Z,20.80
2023-03-18T12:37:31.952Z,21.00
2023-03-18T12:38:31.955Z,20.95
2023-03-18T12:39:31.902Z,21.04
2023-03-18T12:40:32.295Z,21.10
2023-03-18T12:41:31.879Z,21.20
2023-03-18T12:42:31.869Z,21.20
2023-03-18T12:43:31.865Z,21.32
2023-03-18T12:44:31.881Z,21.40
2023-03-18T12:45:32.138Z,21.58
2023-03-18T12:46:31.828Z,21.60
2023-03-18T12:47:31.873Z,21.74
2023-03-18T12:48:43.219Z,21.78
2023-03-18T12:49:32.798Z,21.91
2023-03-18T12:50:31.778Z,21.96
2023-03-18T12:51:31.774Z,22.09
2023-03-18T12:52:31.790Z,22.09
2023-03-18T12:53:31.759Z,22.19
2023-03-18T12:54:31.766Z,22.16
2023-03-18T12:55:31.990Z,22.34
2023-03-18T12:56:31.717Z,22.38
2023-03-18T12:57:31.734Z,22.48